Time;durP1;ratioP1;P1;durP2;ratioP2;P2;SDS_P1;SDS_P2;PMS_P1;PMS_P2;Temp;Humidity;BMP_temperature;BMP_pressure;BME280_temperature;BME280_humidity;BME280_pressure;Samples;Min_cycle;Max_cycle;Signal;HPM_P1;HPM_P2
2022/09/19 00:02:22;;;;;;;26.00;4.50;;;;;;;22.86;100.00;100830.81;6197205;23;20508;-93
2022/09/19 00:05:03;;;;;;;23.00;5.10;;;;;;;22.83;100.00;100841.66;6221239;23;20434;-92
2022/09/19 00:07:36;;;;;;;21.60;5.20;;;;;;;22.78;100.00;100824.91;6200676;22;20947;-93
2022/09/19 00:10:51;;;;;;;21.10;4.53;;;;;;;22.80;100.00;100831.06;6226984;22;20395;-92
2022/09/19 00:13:47;;;;;;;22.73;4.83;;;;;;;22.76;100.00;100827.94;6278187;22;20386;-93
2022/09/19 00:16:31;;;;;;;35.07;5.63;;;;;;;22.72;100.00;100833.22;6227451;22;20382;-94
2022/09/19 00:19:09;;;;;;;34.57;5.10;;;;;;;22.69;100.00;100824.59;6226690;22;20783;-92
2022/09/19 00:22:00;;;;;;;25.53;5.40;;;;;;;22.66;100.00;100823.19;6201047;22;20413;-93
2022/09/19 00:24:49;;;;;;;32.73;5.50;;;;;;;22.62;100.00;100822.03;6226368;22;20422;-94
2022/09/19 00:27:53;;;;;;;26.50;5.67;;;;;;;22.59;100.00;100825.38;6253805;22;20406;-93
2022/09/19 00:34:09;;;;;;;22.40;5.10;;;;;;;22.56;100.00;100828.69;6278323;22;20373;-93
2022/09/19 00:36:37;;;;;;;18.90;4.30;;;;;;;22.53;100.00;100820.88;6201714;22;20444;-94
2022/09/19 00:39:26;;;;;;;24.20;4.90;;;;;;;22.54;100.00;100825.34;6201493;22;20410;-93
2022/09/19 00:41:59;;;;;;;19.63;4.97;;;;;;;22.53;100.00;100823.66;6277746;22;20387;-94
2022/09/19 00:44:37;;;;;;;17.10;3.70;;;;;;;22.56;100.00;100814.75;6201635;22;20809;-94
2022/09/19 00:50:52;;;;;;;22.50;4.87;;;;;;;22.54;100.00;100816.13;6278057;22;20415;-94
2022/09/19 00:53:21;;;;;;;21.77;4.43;;;;;;;22.53;100.00;100812.50;6201760;22;20463;-93
2022/09/19 00:55:59;;;;;;;25.57;5.43;;;;;;;22.55;100.00;100817.81;6201002;22;20420;-94
2022/09/19 00:58:49;;;;;;;27.60;5.43;;;;;;;22.54;100.00;100814.19;6226398;22;20420;-93
2022/09/19 01:01:36;;;;;;;22.43;5.10;;;;;;;22.54;100.00;100811.41;6251498;22;20424;-93
2022/09/19 01:04:29;;;;;;;24.63;5.43;;;;;;;22.56;100.00;100813.91;6226406;22;20480;-93
2022/09/19 01:07:03;;;;;;;25.07;5.30;;;;;;;22.55;100.00;100815.03;6225581;22;20438;-91
2022/09/19 01:10:19;;;;;;;18.73;3.83;;;;;;;22.60;100.00;100815.91;6251272;22;20493;-92
2022/09/19 01:16:18;;;;;;;18.17;3.80;;;;;;;22.67;100.00;100819.28;6277695;22;20697;-93
2022/09/19 01:25:55;;;;;;;25.30;5.43;;;;;;;22.78;100.00;100828.53;6278511;22;20475;-92
2022/09/19 01:32:36;;;;;;;15.93;4.23;;;;;;;22.82;100.00;100814.91;6278068;22;20377;-92
2022/09/19 01:35:25;;;;;;;21.67;4.73;;;;;;;22.83;100.00;100805.44;6251654;22;20378;-92
2022/09/19 01:38:10;;;;;;;15.87;4.43;;;;;;;22.82;100.00;100803.75;6203514;22;20728;-93
2022/09/19 01:40:59;;;;;;;17.53;4.00;;;;;;;22.87;100.00;100806.56;6203652;22;20405;-93
2022/09/19 01:43:38;;;;;;;20.57;3.77;;;;;;;22.88;100.00;100797.09;6226371;22;20416;-93
2022/09/19 01:46:38;;;;;;;20.13;5.00;;;;;;;22.89;100.00;100804.34;6225738;22;20499;-92
2022/09/19 01:49:55;;;;;;;23.50;4.30;;;;;;;22.90;100.00;100798.47;6251758;22;20382;-93
2022/09/19 01:53:06;;;;;;;18.50;4.40;;;;;;;22.91;100.00;100791.78;6250106;22;20410;-93
2022/09/19 01:56:12;;;;;;;20.10;3.83;;;;;;;22.91;100.00;100779.78;6253093;22;20474;-93
2022/09/19 01:58:49;;;;;;;20.53;4.60;;;;;;;22.94;100.00;100796.81;6229181;22;20726;-93
2022/09/19 02:01:29;;;;;;;19.47;4.40;;;;;;;22.95;100.00;100783.72;6228411;22;20385;-93
2022/09/19 02:04:13;;;;;;;25.73;4.37;;;;;;;22.96;100.00;100777.03;6230123;22;20690;-93
2022/09/19 02:06:48;;;;;;;16.80;4.03;;;;;;;23.00;100.00;100783.72;6204003;22;20429;-92
2022/09/19 02:13:24;;;;;;;17.00;3.70;;;;;;;23.04;99.88;100774.56;6279623;22;20404;-93
2022/09/19 02:16:05;;;;;;;17.33;4.60;;;;;;;23.05;99.20;100773.44;6227887;22;20409;-93
2022/09/19 02:18:59;;;;;;;21.10;4.40;;;;;;;23.09;97.98;100770.94;6228417;22;20463;-93
2022/09/19 02:21:40;;;;;;;22.83;4.77;;;;;;;23.06;97.51;100760.34;6227406;22;20409;-92
2022/09/19 02:24:13;;;;;;;26.07;4.90;;;;;;;23.11;97.32;100765.91;6204845;22;20406;-93
2022/09/19 02:26:46;;;;;;;25.17;3.80;;;;;;;23.14;97.45;100762.56;6202656;22;20915;-93
2022/09/19 02:29:49;;;;;;;14.70;3.37;;;;;;;23.20;96.86;100755.88;6227247;22;20409;-92
2022/09/19 02:32:35;;;;;;;18.53;4.00;;;;;;;23.20;96.85;100767.03;6252730;22;20390;-93
2022/09/19 02:35:45;;;;;;;18.60;3.77;;;;;;;23.23;96.98;100755.34;6203582;22;20410;-94
2022/09/19 02:38:44;;;;;;;13.03;3.20;;;;;;;23.23;96.49;100746.13;6227904;22;20406;-93
2022/09/19 02:41:56;;;;;;;30.73;4.03;;;;;;;23.27;96.42;100742.50;6207603;22;20467;-94
2022/09/19 02:45:17;;;;;;;30.30;4.60;;;;;;;23.32;96.39;100752.81;6279821;22;20426;-95
2022/09/19 02:51:50;;;;;;;18.03;4.00;;;;;;;23.33;96.33;100754.50;6280611;22;20362;-93
2022/09/19 02:54:31;;;;;;;24.27;4.03;;;;;;;23.33;96.81;100749.75;6212241;22;20403;-93
2022/09/19 02:57:13;;;;;;;15.20;4.13;;;;;;;23.35;96.83;100753.09;6203931;22;20394;-94
2022/09/19 03:00:18;;;;;;;22.03;4.37;;;;;;;23.37;96.86;100750.88;6204063;22;20409;-93
2022/09/19 03:02:59;;;;;;;21.67;4.07;;;;;;;23.38;97.38;100746.13;6253178;22;20714;-92
2022/09/19 03:05:28;;;;;;;27.30;6.00;;;;;;;23.36;97.39;100742.78;6250129;22;20442;-93
2022/09/19 03:08:03;;;;;;;24.83;4.90;;;;;;;23.38;97.68;100741.38;6197634;23;20422;-93
2022/09/19 03:10:38;;;;;;;30.20;4.90;;;;;;;23.37;97.93;100736.09;6222698;23;20866;-93
2022/09/19 03:17:20;;;;;;;22.27;4.73;;;;;;;23.36;98.80;100729.66;6248305;23;20375;-93
2022/09/19 03:20:13;;;;;;;30.33;6.07;;;;;;;23.38;98.89;100738.59;6222399;23;20387;-92
2022/09/19 03:22:41;;;;;;;25.70;5.07;;;;;;;23.36;99.27;100731.63;6196826;23;20387;-93
2022/09/19 03:28:57;;;;;;;39.07;5.80;;;;;;;23.34;99.47;100722.69;6248936;23;20365;-92
2022/09/19 03:31:50;;;;;;;30.93;6.20;;;;;;;23.31;99.75;100706.50;6172973;23;20380;-94
2022/09/19 03:34:19;;;;;;;29.07;5.73;;;;;;;23.31;99.69;100717.66;6200163;23;20506;-93
2022/09/19 03:40:34;;;;;;;37.50;7.43;;;;;;;23.24;100.00;100712.38;6248464;23;20379;-93
2022/09/19 03:43:06;;;;;;;29.37;4.53;;;;;;;23.25;100.00;100718.81;6196861;23;20406;-93
2022/09/19 03:45:34;;;;;;;28.33;5.13;;;;;;;23.22;100.00;100702.63;6197377;23;20442;-93
2022/09/19 03:48:03;;;;;;;35.10;5.90;;;;;;;23.20;100.00;100702.91;6173060;23;20418;-93
2022/09/19 03:51:21;;;;;;;37.33;5.50;;;;;;;23.21;100.00;100707.38;6173154;23;20566;-92
2022/09/19 03:53:50;;;;;;;25.03;5.33;;;;;;;23.14;100.00;100703.16;6221090;23;20493;-94
2022/09/19 03:56:31;;;;;;;34.63;6.87;;;;;;;23.14;100.00;100700.38;6197061;23;20395;-93
2022/09/19 03:59:02;;;;;;;42.70;6.27;;;;;;;23.11;100.00;100696.19;6172591;23;20414;-93
2022/09/19 04:01:46;;;;;;;45.13;6.00;;;;;;;23.08;100.00;100705.13;6198130;23;20383;-93
2022/09/19 04:04:57;;;;;;;25.70;6.00;;;;;;;23.11;100.00;100706.50;6172923;23;20382;-93
2022/09/19 04:07:30;;;;;;;44.03;7.00;;;;;;;23.04;100.00;100701.22;6246937;22;20448;-92
2022/09/19 04:10:34;;;;;;;36.97;6.60;;;;;;;23.10;100.00;100711.25;6226930;22;20405;-92
2022/09/19 04:13:20;;;;;;;27.97;6.23;;;;;;;23.07;100.00;100706.25;6226626;22;20389;-93
2022/09/19 04:15:57;;;;;;;28.13;6.50;;;;;;;23.01;100.00;100694.25;6228178;22;20405;-92
2022/09/19 04:18:50;;;;;;;31.47;7.17;;;;;;;23.04;100.00;100706.78;6202501;22;20429;-93
2022/09/19 04:21:23;;;;;;;44.87;6.80;;;;;;;23.02;100.00;100692.28;6228364;22;20410;-93
2022/09/19 04:23:50;;;;;;;36.57;6.10;;;;;;;23.00;100.00;100688.94;6227379;22;20489;-93
2022/09/19 04:26:17;;;;;;;31.40;5.43;;;;;;;22.97;100.00;100690.34;6227306;22;20471;-93
2022/09/19 04:29:19;;;;;;;40.90;7.40;;;;;;;22.99;100.00;100692.84;6201766;22;20483;-93
2022/09/19 04:32:02;;;;;;;46.77;7.93;;;;;;;22.96;100.00;100685.03;6227858;22;20409;-93
2022/09/19 04:34:43;;;;;;;29.40;6.10;;;;;;;23.01;100.00;100690.63;6228063;22;20455;-93
2022/09/19 04:37:30;;;;;;;33.10;6.43;;;;;;;23.00;100.00;100697.31;6203683;22;20465;-94
2022/09/19 04:40:08;;;;;;;31.90;6.27;;;;;;;23.02;100.00;100697.88;6226783;22;20410;-92
2022/09/19 04:42:41;;;;;;;39.23;6.87;;;;;;;23.02;100.00;100698.72;6226654;22;20410;-92
2022/09/19 04:45:20;;;;;;;33.27;7.70;;;;;;;23.04;100.00;100706.78;6226767;22;20496;-94
2022/09/19 04:48:06;;;;;;;39.43;7.30;;;;;;;23.01;100.00;100708.19;6203188;22;20409;-94
2022/09/19 04:50:40;;;;;;;53.63;7.07;;;;;;;23.01;100.00;100701.78;6228310;22;20422;-93
2022/09/19 04:53:12;;;;;;;32.40;7.10;;;;;;;22.98;100.00;100707.91;6201972;22;20390;-93
2022/09/19 04:56:18;;;;;;;36.47;6.37;;;;;;;23.01;100.00;100707.34;6204195;22;20440;-93
2022/09/19 04:59:24;;;;;;;33.10;6.43;;;;;;;23.00;100.00;100722.41;6251597;22;20406;-93
2022/09/19 05:02:01;;;;;;;31.30;7.20;;;;;;;22.99;100.00;100720.72;6252826;22;20780;-93
2022/09/19 05:04:38;;;;;;;34.57;6.40;;;;;;;23.00;100.00;100725.19;6204067;22;20797;-93
2022/09/19 05:07:17;;;;;;;33.57;6.10;;;;;;;23.03;100.00;100738.59;6203578;22;20430;-93
2022/09/19 05:09:50;;;;;;;30.33;6.50;;;;;;;22.99;100.00;100732.72;6227645;22;20409;-93
2022/09/19 05:12:23;;;;;;;50.07;7.70;;;;;;;23.02;100.00;100731.31;6203672;22;20410;-92
2022/09/19 05:14:52;;;;;;;26.63;5.93;;;;;;;22.98;100.00;100742.19;6226768;22;20463;-92
2022/09/19 05:21:05;;;;;;;38.40;6.37;;;;;;;22.98;100.00;100744.13;6279069;22;20864;-92
2022/09/19 05:24:08;;;;;;;30.33;5.90;;;;;;;22.96;100.00;100760.31;6226623;22;20954;-92
2022/09/19 05:27:01;;;;;;;34.77;6.40;;;;;;;22.95;100.00;100753.06;6278085;22;20927;-92
2022/09/19 05:29:39;;;;;;;38.73;6.30;;;;;;;22.91;100.00;100747.19;6227990;22;20718;-93
2022/09/19 05:32:13;;;;;;;48.23;7.50;;;;;;;22.91;100.00;100752.75;6205353;22;20865;-93
2022/09/19 05:35:29;;;;;;;33.80;7.57;;;;;;;22.92;100.00;100771.16;6202893;22;20440;-94
2022/09/19 05:41:57;;;;;;;34.53;6.00;;;;;;;22.89;100.00;100766.16;6280043;22;20412;-93
2022/09/19 05:44:27;;;;;;;36.53;8.17;;;;;;;22.89;100.00;100766.16;6228194;22;20968;-92
2022/09/19 05:47:03;;;;;;;34.50;7.57;;;;;;;22.83;100.00;100767.25;6203623;22;20429;-93
2022/09/19 05:49:37;;;;;;;42.17;7.67;;;;;;;22.85;100.00;100772.56;6203139;22;20459;-93
2022/09/19 05:55:49;;;;;;;45.30;7.50;;;;;;;22.80;100.00;100778.94;6280139;22;20373;-94
2022/09/19 05:58:17;;;;;;;37.80;7.40;;;;;;;22.82;100.00;100779.50;6204015;22;20409;-93
2022/09/19 06:01:06;;;;;;;32.07;7.73;;;;;;;22.78;100.00;100785.91;6204055;22;20392;-92
2022/09/19 06:03:59;;;;;;;48.00;8.00;;;;;;;22.80;100.00;100792.88;6205316;22;20379;-94
2022/09/19 06:06:27;;;;;;;49.23;8.17;;;;;;;22.75;100.00;100796.44;6227321;22;20454;-92
2022/09/19 06:08:57;;;;;;;35.63;7.30;;;;;;;22.78;100.00;100797.03;6228873;22;20416;-94
2022/09/19 06:11:25;;;;;;;43.87;8.73;;;;;;;22.74;100.00;100800.34;6229632;22;20402;-92
2022/09/19 06:14:14;;;;;;;37.50;7.43;;;;;;;22.78;100.00;100813.78;6191553;22;20410;-94
2022/09/19 06:16:42;;;;;;;47.80;7.43;;;;;;;22.70;100.00;100813.16;6280429;22;20413;-93
2022/09/19 06:19:10;;;;;;;39.67;7.13;;;;;;;22.71;100.00;100820.38;6205663;22;20457;-93
2022/09/19 06:21:47;;;;;;;31.77;7.60;;;;;;;22.73;100.00;100828.47;6228309;22;20417;-92
2022/09/19 06:24:15;;;;;;;44.40;7.47;;;;;;;22.70;100.00;100823.47;6203566;22;20467;-93
2022/09/19 06:26:44;;;;;;;37.83;6.40;;;;;;;22.70;100.00;100835.47;6202666;22;21008;-93
2022/09/19 06:29:22;;;;;;;38.00;7.10;;;;;;;22.71;100.00;100825.13;6203039;22;20395;-93
2022/09/19 06:31:50;;;;;;;40.70;7.63;;;;;;;22.71;100.00;100830.69;6203006;22;20412;-92
2022/09/19 06:34:30;;;;;;;43.97;7.47;;;;;;;22.73;100.00;100846.03;6203732;22;20761;-93
2022/09/19 06:37:53;;;;;;;37.73;7.93;;;;;;;22.72;100.00;100841.56;6236051;22;20408;-94
2022/09/19 06:40:22;;;;;;;45.10;8.20;;;;;;;22.68;100.00;100837.69;6252358;22;20393;-94
2022/09/19 06:43:26;;;;;;;49.57;8.60;;;;;;;22.72;100.00;100849.09;6228873;22;20390;-93
2022/09/19 06:46:03;;;;;;;30.50;7.10;;;;;;;22.74;100.00;100847.72;6228216;22;20433;-93
2022/09/19 06:52:12;;;;;;;42.20;8.00;;;;;;;22.69;100.00;100850.50;6279453;22;20373;-93
2022/09/19 06:54:43;;;;;;;46.83;8.17;;;;;;;22.70;100.00;100854.97;6227568;22;20452;-93
2022/09/19 06:57:13;;;;;;;49.17;7.80;;;;;;;22.70;100.00;100843.81;6229299;22;20712;-94
2022/09/19 07:00:03;;;;;;;62.73;9.70;;;;;;;22.72;100.00;100857.47;6203944;22;20394;-93
2022/09/19 07:02:32;;;;;;;40.37;7.23;;;;;;;22.68;100.00;100853.56;6253875;22;20386;-94
2022/09/19 07:05:51;;;;;;;42.37;8.93;;;;;;;22.71;100.00;100866.94;6204214;22;20398;-93
2022/09/19 07:08:19;;;;;;;55.10;9.33;;;;;;;22.65;100.00;100866.09;6223786;23;20495;-93
2022/09/19 07:11:04;;;;;;;45.57;8.50;;;;;;;22.72;100.00;100872.22;6176455;23;20490;-94
2022/09/19 07:13:34;;;;;;;41.87;8.63;;;;;;;22.68;100.00;100876.69;6199718;23;20485;-94
2022/09/19 07:16:03;;;;;;;40.90;7.83;;;;;;;22.67;100.00;100869.44;6199145;23;20908;-95
2022/09/19 07:18:47;;;;;;;37.33;7.50;;;;;;;22.70;100.00;100879.22;6172561;23;20387;-95
2022/09/19 07:21:30;;;;;;;38.23;8.13;;;;;;;22.69;100.00;100878.38;6196497;23;20411;-95
2022/09/19 07:24:21;;;;;;;36.30;8.37;;;;;;;22.69;100.00;100895.09;6196880;23;20743;-96
2022/09/19 07:26:48;;;;;;;44.70;9.10;;;;;;;22.67;100.00;100879.75;6195913;23;20451;-96
2022/09/19 07:29:17;;;;;;;34.43;8.80;;;;;;;22.69;100.00;100895.09;6171825;23;20410;-93
2022/09/19 07:32:10;;;;;;;46.43;9.30;;;;;;;22.70;100.00;100899.56;6172190;23;20390;-95
2022/09/19 07:34:46;;;;;;;47.97;9.80;;;;;;;22.71;100.00;100897.59;6196133;23;20387;-92
2022/09/19 07:37:18;;;;;;;38.93;8.50;;;;;;;22.69;100.00;100906.25;6171244;23;20409;-93
2022/09/19 07:39:55;;;;;;;56.20;8.80;;;;;;;22.67;100.00;100905.66;6174944;23;20465;-92
2022/09/19 07:43:03;;;;;;;45.87;10.50;;;;;;;22.67;100.00;100908.44;6201500;23;20407;-93
2022/09/19 07:45:37;;;;;;;41.07;10.00;;;;;;;22.66;100.00;100911.50;6198180;23;20441;-92
2022/09/19 07:48:05;;;;;;;42.23;9.50;;;;;;;22.66;100.00;100917.91;6196474;23;20387;-92
2022/09/19 07:51:04;;;;;;;56.67;9.43;;;;;;;22.69;100.00;100928.53;6171517;23;20403;-93
2022/09/19 07:54:24;;;;;;;35.00;9.73;;;;;;;22.71;100.00;100926.28;6195987;23;20909;-93
2022/09/19 07:57:03;;;;;;;45.57;8.83;;;;;;;22.73;100.00;100934.38;6208545;23;20499;-93
2022/09/19 07:59:31;;;;;;;57.50;10.80;;;;;;;22.74;100.00;100931.31;6195404;23;20406;-92
2022/09/19 08:02:12;;;;;;;37.33;9.37;;;;;;;22.71;100.00;100931.03;6171179;23;20406;-95
2022/09/19 08:05:05;;;;;;;43.83;10.97;;;;;;;22.79;100.00;100946.44;6170181;23;20497;-94
2022/09/19 08:07:33;;;;;;;39.07;8.57;;;;;;;22.77;100.00;100957.84;6240761;22;20500;-94
2022/09/19 08:10:06;;;;;;;49.10;8.80;;;;;;;22.81;100.00;100960.94;6215854;22;20728;-94
2022/09/19 08:12:37;;;;;;;38.70;9.50;;;;;;;22.79;100.00;100961.22;6252017;22;20389;-93
2022/09/19 08:15:19;;;;;;;37.93;8.40;;;;;;;22.81;100.00;100966.53;6202247;22;20383;-93
2022/09/19 08:18:00;;;;;;;49.57;11.20;;;;;;;22.85;100.00;100976.03;6225772;22;20401;-93
2022/09/19 08:20:38;;;;;;;40.83;9.20;;;;;;;22.91;100.00;100997.22;6252143;22;20703;-93
2022/09/19 08:23:16;;;;;;;40.93;10.50;;;;;;;22.90;100.00;100990.81;6227723;22;20425;-92
2022/09/19 08:25:47;;;;;;;39.67;9.10;;;;;;;22.87;100.00;100990.53;6227002;22;20437;-93
2022/09/19 08:28:21;;;;;;;47.90;10.47;;;;;;;22.90;100.00;101006.72;6251545;22;20783;-93
2022/09/19 08:30:49;;;;;;;55.33;9.97;;;;;;;22.90;100.00;101001.16;6250817;22;20398;-93
2022/09/19 08:33:20;;;;;;;47.57;10.23;;;;;;;22.91;100.00;101002.81;6225862;22;20409;-92
2022/09/19 08:35:47;;;;;;;41.83;10.57;;;;;;;22.91;100.00;101013.97;6250141;22;20471;-93
2022/09/19 08:38:18;;;;;;;44.80;11.00;;;;;;;22.94;100.00;101019.00;6226171;22;20391;-92
2022/09/19 08:41:24;;;;;;;46.10;11.03;;;;;;;22.94;100.00;101022.63;6250163;22;20405;-93
2022/09/19 08:44:01;;;;;;;34.30;9.50;;;;;;;22.98;100.00;101023.78;6250720;22;20478;-93
2022/09/19 08:46:50;;;;;;;46.70;11.27;;;;;;;23.02;100.00;101033.28;6276286;22;20445;-93
2022/09/19 08:49:35;;;;;;;39.37;9.27;;;;;;;23.12;100.00;101026.06;6251764;22;20378;-94
2022/09/19 08:52:32;;;;;;;56.50;11.27;;;;;;;23.09;100.00;101010.75;6226679;22;20409;-93
2022/09/19 08:55:01;;;;;;;47.23;11.30;;;;;;;23.26;100.00;101033.72;6235728;22;20880;-93
2022/09/19 08:57:54;;;;;;;62.63;12.40;;;;;;;23.40;100.00;101032.09;6226025;22;20428;-93
2022/09/19 09:00:56;;;;;;;36.83;9.30;;;;;;;23.52;100.00;101034.69;6251493;22;20492;-93
2022/09/19 09:03:41;;;;;;;56.83;10.37;;;;;;;23.67;100.00;101047.84;6254451;22;20792;-93
2022/09/19 09:06:33;;;;;;;45.03;10.23;;;;;;;23.80;100.00;101054.88;6249089;22;20450;-94
2022/09/19 09:09:22;;;;;;;53.67;10.20;;;;;;;23.96;100.00;101060.25;6225378;22;20897;-93
2022/09/19 09:12:12;;;;;;;48.43;11.13;;;;;;;24.07;100.00;101061.09;6228326;22;20417;-93
2022/09/19 09:15:08;;;;;;;39.67;10.20;;;;;;;24.26;100.00;101069.81;6225527;22;20410;-94
2022/09/19 09:18:33;;;;;;;41.30;9.87;;;;;;;24.42;100.00;101074.34;6253803;22;20425;-92
2022/09/19 09:21:37;;;;;;;54.03;10.37;;;;;;;24.52;100.00;101084.66;6224520;22;20413;-94
2022/09/19 09:24:19;;;;;;;53.07;10.10;;;;;;;24.53;100.00;101076.00;6252192;22;20407;-96
2022/09/19 09:27:19;;;;;;;54.97;10.13;;;;;;;24.59;100.00;101080.50;6231515;22;20448;-95
2022/09/19 09:32:40;;;;;;;33.93;8.30;;;;;;;25.09;100.00;101081.59;6279364;22;20436;-95
2022/09/19 09:35:41;;;;;;;40.37;8.30;;;;;;;25.26;100.00;101096.09;6248180;22;20454;-95
2022/09/19 09:38:52;;;;;;;37.50;7.70;;;;;;;25.35;100.00;101102.81;6240167;23;20406;-92
2022/09/19 09:41:47;;;;;;;38.57;9.03;;;;;;;25.39;100.00;101103.94;6220372;23;20411;-92
2022/09/19 09:44:44;;;;;;;48.70;9.00;;;;;;;25.45;100.00;101107.53;6224169;23;20406;-92
2022/09/19 09:47:30;;;;;;;44.53;8.17;;;;;;;25.53;100.00;101106.97;6243927;23;20446;-93
2022/09/19 09:50:26;;;;;;;29.43;8.03;;;;;;;25.56;99.63;101106.41;6223510;23;20402;-93
2022/09/19 09:53:46;;;;;;;30.03;7.30;;;;;;;25.77;98.92;101118.41;6244858;23;20970;-93
2022/09/19 09:56:32;;;;;;;27.40;6.70;;;;;;;25.93;98.55;101127.56;6135910;23;20404;-93
2022/09/19 10:06:23;;;;;;;31.37;6.30;;;;;;;26.14;96.40;101123.56;6094899;23;20451;-91
2022/09/19 10:09:23;;;;;;;25.73;5.13;;;;;;;26.21;95.62;101123.22;6076186;23;20453;-92
2022/09/19 10:12:33;;;;;;;20.40;4.53;;;;;;;26.51;95.80;101139.06;6055341;23;20482;-93
2022/09/19 10:19:50;;;;;;;20.17;4.40;;;;;;;26.95;92.70;101147.44;6096779;23;20455;-93
2022/09/19 10:22:22;;;;;;;13.77;3.80;;;;;;;27.02;91.51;101145.13;6073912;23;20403;-92
2022/09/19 10:24:55;;;;;;;26.50;5.30;;;;;;;27.09;91.08;101151.25;6049077;23;20415;-92
2022/09/19 10:27:26;;;;;;;19.50;4.20;;;;;;;27.21;90.80;101154.50;6026788;23;20450;-91
2022/09/19 10:30:19;;;;;;;20.23;5.70;;;;;;;27.22;90.14;101160.94;6072955;23;20422;-91
2022/09/19 10:33:26;;;;;;;22.77;5.40;;;;;;;27.26;90.38;101162.03;6139689;23;20478;-93
2022/09/19 10:40:01;;;;;;;16.17;3.33;;;;;;;27.62;89.01;101145.69;6248782;23;20465;-94
2022/09/19 10:42:41;;;;;;;11.90;3.70;;;;;;;27.57;87.18;101157.81;6197954;23;20406;-95
2022/09/19 10:45:32;;;;;;;18.40;4.70;;;;;;;27.57;87.22;101154.13;6220890;23;20421;-95
2022/09/19 10:48:26;;;;;;;13.60;4.43;;;;;;;27.69;87.51;101175.13;6197993;23;20500;-96
2022/09/19 10:51:12;;;;;;;14.70;3.87;;;;;;;27.77;86.78;101167.97;6247091;23;20411;-94
2022/09/19 10:54:11;;;;;;;14.03;3.53;;;;;;;27.94;86.08;101168.34;6198310;23;20417;-95
2022/09/19 11:04:42;;;;;;;18.80;4.20;;;;;;;28.45;83.89;101162.09;6247239;22;20410;-95
2022/09/19 11:07:44;;;;;;;19.97;3.50;;;;;;;28.62;83.16;101167.19;6246649;23;20443;-96
2022/09/19 11:11:07;;;;;;;12.17;3.00;;;;;;;28.87;82.07;101158.34;6221080;23;21120;-95
2022/09/19 11:17:55;;;;;;;9.57;2.73;;;;;;;29.12;79.85;101163.56;6248004;23;20371;-96
2022/09/19 11:21:05;;;;;;;17.67;4.10;;;;;;;29.28;79.39;101154.84;6247302;23;20403;-94
2022/09/19 11:24:09;;;;;;;20.50;3.50;;;;;;;29.42;79.38;101159.41;6246283;23;20433;-94
2022/09/19 11:27:16;;;;;;;14.70;4.40;;;;;;;29.36;78.08;101154.97;6246607;22;20450;-94
2022/09/19 11:30:11;;;;;;;18.07;3.80;;;;;;;29.26;78.59;101160.78;6245272;23;20416;-94
2022/09/19 11:33:26;;;;;;;32.00;4.97;;;;;;;29.32;78.88;101151.09;6246333;23;20481;-94
2022/09/19 11:44:39;;;;;;;8.37;2.50;;;;;;;29.82;76.30;101159.75;6185209;23;20392;-94
2022/09/19 11:47:56;;;;;;;9.60;3.43;;;;;;;29.69;75.37;101157.75;6161635;23;20535;-94
2022/09/19 11:50:59;;;;;;;6.93;2.50;;;;;;;29.59;75.68;101143.88;6160958;23;20407;-94
2022/09/19 11:57:50;;;;;;;13.93;2.90;;;;;;;29.38;73.84;101152.69;6185461;23;20924;-95
2022/09/19 12:01:05;;;;;;;12.57;3.53;;;;;;;29.22;74.90;101165.38;6200611;23;20410;-95
2022/09/19 12:07:57;;;;;;;11.50;3.67;;;;;;;28.81;76.77;101153.97;6247174;23;20426;-95
2022/09/19 12:14:20;;;;;;;15.80;3.00;;;;;;;28.92;79.05;101138.56;6247447;23;20402;-95
2022/09/19 12:20:57;;;;;;;9.03;2.73;;;;;;;29.68;76.82;101161.72;6247503;23;20445;-95
2022/09/19 12:27:34;;;;;;;9.47;2.60;;;;;;;30.16;75.08;101150.91;6246635;23;20540;-95
2022/09/19 12:30:33;;;;;;;14.53;2.97;;;;;;;30.30;73.94;101164.97;6218595;23;20964;-95
2022/09/19 12:36:55;;;;;;;6.57;2.80;;;;;;;30.42;73.52;101142.69;6237439;23;20425;-95
2022/09/19 12:39:54;;;;;;;15.93;3.47;;;;;;;30.75;72.72;101158.31;6198387;23;20448;-95
2022/09/19 12:42:47;;;;;;;17.30;3.40;;;;;;;30.91;71.90;101151.13;6198790;23;20410;-95
2022/09/19 12:45:33;;;;;;;8.27;2.80;;;;;;;30.82;71.30;101158.69;6134819;23;20983;-95
2022/09/19 12:48:33;;;;;;;10.60;2.80;;;;;;;30.66;71.23;101171.50;6112275;23;20450;-95
2022/09/19 12:51:08;;;;;;;12.00;2.43;;;;;;;30.39;71.84;101155.47;6160628;23;20400;-95
2022/09/19 12:54:20;;;;;;;7.57;2.77;;;;;;;30.19;72.05;101162.38;6160586;23;20915;-95
2022/09/19 12:56:54;;;;;;;7.87;2.30;;;;;;;29.78;72.77;101150.25;6218385;23;20496;-95
2022/09/19 12:59:33;;;;;;;10.00;2.90;;;;;;;29.59;74.35;101153.16;6220211;23;20500;-94
2022/09/19 13:02:20;;;;;;;11.70;3.13;;;;;;;29.46;75.02;101151.97;6246458;23;20410;-95
2022/09/19 13:04:59;;;;;;;14.00;3.30;;;;;;;29.44;76.06;101161.91;6196715;23;20406;-95
2022/09/19 13:07:48;;;;;;;13.00;2.97;;;;;;;29.36;75.98;101163.44;6221479;23;20524;-95
2022/09/19 13:10:47;;;;;;;10.87;2.37;;;;;;;29.28;76.02;101155.69;6246391;23;20497;-94
2022/09/19 13:13:34;;;;;;;12.40;3.10;;;;;;;29.18;76.38;101164.31;6246549;23;20492;-95
2022/09/19 13:16:09;;;;;;;13.23;2.97;;;;;;;29.18;77.09;101147.41;6246285;23;20426;-95
2022/09/19 13:24:45;;;;;;;9.50;2.80;;;;;;;29.59;76.63;101146.69;6225322;23;20437;-95
2022/09/19 13:27:17;;;;;;;8.43;2.80;;;;;;;29.72;75.69;101134.59;6245539;23;20445;-95
2022/09/19 13:29:53;;;;;;;11.40;2.77;;;;;;;29.98;74.84;101132.97;6221843;23;20414;-95
2022/09/19 13:33:09;;;;;;;12.23;2.63;;;;;;;30.29;73.77;101140.72;6197664;23;20414;-94
2022/09/19 13:36:16;;;;;;;10.43;2.60;;;;;;;30.11;72.59;101137.72;6242320;23;20742;-95
2022/09/19 13:38:53;;;;;;;11.40;3.17;;;;;;;30.03;73.28;101135.66;6245814;23;20406;-95
2022/09/19 13:41:48;;;;;;;7.77;2.90;;;;;;;30.16;73.99;101123.53;6220901;23;20437;-96
2022/09/19 13:44:49;;;;;;;12.30;3.13;;;;;;;30.15;72.79;101126.66;6220473;23;20493;-95
2022/09/19 13:47:42;;;;;;;9.03;2.23;;;;;;;30.32;72.63;101120.34;6134905;23;20474;-95
2022/09/19 13:50:20;;;;;;;10.67;2.50;;;;;;;30.63;71.80;101131.78;6139454;23;20503;-95
2022/09/19 13:53:21;;;;;;;13.80;3.33;;;;;;;30.53;71.64;101122.38;6138979;23;20411;-95
2022/09/19 13:56:26;;;;;;;6.20;2.43;;;;;;;30.65;72.09;101130.31;6137439;23;20438;-95
2022/09/19 13:59:35;;;;;;;9.07;2.90;;;;;;;30.64;70.82;101133.44;6161203;23;20782;-95
2022/09/19 14:02:40;;;;;;;12.83;3.07;;;;;;;30.25;70.36;101120.78;6162258;23;20494;-94
2022/09/19 14:05:19;;;;;;;8.80;2.47;;;;;;;29.99;71.83;101128.16;6161187;23;20759;-96
2022/09/19 14:07:53;;;;;;;10.20;2.53;;;;;;;29.90;72.65;101130.81;6113712;23;20797;-95
2022/09/19 14:10:53;;;;;;;11.80;2.93;;;;;;;30.00;72.72;101124.19;6166131;23;20403;-94
2022/09/19 14:13:37;;;;;;;11.53;3.00;;;;;;;30.09;72.38;101123.13;6114182;23;20399;-95
2022/09/19 14:16:36;;;;;;;6.97;2.30;;;;;;;30.06;72.32;101129.38;6137562;23;20482;-94
2022/09/19 14:19:47;;;;;;;10.87;2.47;;;;;;;29.84;72.63;101120.81;6161749;23;20462;-95
2022/09/19 14:22:44;;;;;;;13.67;2.90;;;;;;;29.78;73.84;101124.91;6200046;23;20405;-96
2022/09/19 14:25:33;;;;;;;8.53;2.23;;;;;;;29.84;73.91;101121.63;6247747;23;20414;-95
2022/09/19 14:28:40;;;;;;;6.20;2.33;;;;;;;30.07;73.79;101128.22;6222941;23;20769;-95
2022/09/19 14:31:58;;;;;;;10.73;2.70;;;;;;;30.20;72.67;101127.41;6247537;23;20493;-95
2022/09/19 14:34:38;;;;;;;13.60;3.10;;;;;;;30.23;72.54;101121.09;6229264;23;20493;-96
2022/09/19 14:37:43;;;;;;;11.03;2.30;;;;;;;30.20;72.53;101127.41;6246691;23;20468;-95
2022/09/19 14:40:36;;;;;;;6.90;2.30;;;;;;;30.21;72.42;101125.41;6247108;23;20410;-95
2022/09/19 14:43:24;;;;;;;9.20;2.23;;;;;;;30.20;71.84;101118.94;6246588;23;20410;-95